sensor_id;sensor_type;location;lat;lon;timestamp;P1;durP1;ratioP1;P2;durP2;ratioP2
77038;SDS011;65970;50.476;4.840;2024-03-17T00:03:58;4.75;;;3.60;;
77038;SDS011;65970;50.476;4.840;2024-03-17T00:08:58;5.68;;;3.78;;
77038;SDS011;65970;50.476;4.840;2024-03-17T00:13:59;7.25;;;3.40;;
77038;SDS011;65970;50.476;4.840;2024-03-17T00:18:59;5.80;;;3.97;;
77038;SDS011;65970;50.476;4.840;2024-03-17T00:24:00;5.57;;;3.60;;
77038;SDS011;65970;50.476;4.840;2024-03-17T00:29:01;4.68;;;3.45;;
77038;SDS011;65970;50.476;4.840;2024-03-17T00:34:01;6.20;;;4.05;;
77038;SDS011;65970;50.476;4.840;2024-03-17T00:39:02;5.70;;;3.80;;
77038;SDS011;65970;50.476;4.840;2024-03-17T00:44:02;4.07;;;3.10;;
77038;SDS011;65970;50.476;4.840;2024-03-17T00:49:03;7.55;;;3.55;;
77038;SDS011;65970;50.476;4.840;2024-03-17T00:54:04;4.95;;;3.67;;
77038;SDS011;65970;50.476;4.840;2024-03-17T00:59:04;3.58;;;2.95;;
77038;SDS011;65970;50.476;4.840;2024-03-17T01:04:05;6.75;;;3.13;;
77038;SDS011;65970;50.476;4.840;2024-03-17T01:09:06;4.82;;;4.05;;
77038;SDS011;65970;50.476;4.840;2024-03-17T01:14:06;7.75;;;3.67;;
77038;SDS011;65970;50.476;4.840;2024-03-17T01:19:07;5.40;;;3.35;;
77038;SDS011;65970;50.476;4.840;2024-03-17T01:24:08;7.85;;;3.95;;
77038;SDS011;65970;50.476;4.840;2024-03-17T01:29:08;5.43;;;3.50;;
77038;SDS011;65970;50.476;4.840;2024-03-17T01:34:09;5.20;;;3.30;;
77038;SDS011;65970;50.476;4.840;2024-03-17T01:39:09;4.47;;;3.50;;
77038;SDS011;65970;50.476;4.840;2024-03-17T01:44:22;3.95;;;3.58;;
77038;SDS011;65970;50.476;4.840;2024-03-17T01:49:25;8.15;;;3.33;;
77038;SDS011;65970;50.476;4.840;2024-03-17T01:54:26;4.10;;;3.08;;
77038;SDS011;65970;50.476;4.840;2024-03-17T01:59:27;6.00;;;3.15;;
77038;SDS011;65970;50.476;4.840;2024-03-17T02:04:28;4.55;;;3.17;;
77038;SDS011;65970;50.476;4.840;2024-03-17T02:09:29;5.70;;;2.97;;
77038;SDS011;65970;50.476;4.840;2024-03-17T02:14:29;3.80;;;2.70;;
77038;SDS011;65970;50.476;4.840;2024-03-17T02:19:30;2.13;;;1.92;;
77038;SDS011;65970;50.476;4.840;2024-03-17T02:24:31;6.72;;;2.60;;
77038;SDS011;65970;50.476;4.840;2024-03-17T02:29:31;2.95;;;2.30;;
77038;SDS011;65970;50.476;4.840;2024-03-17T02:34:32;3.45;;;2.40;;
77038;SDS011;65970;50.476;4.840;2024-03-17T02:39:34;3.17;;;2.30;;
77038;SDS011;65970;50.476;4.840;2024-03-17T02:44:36;3.60;;;2.67;;
77038;SDS011;65970;50.476;4.840;2024-03-17T02:49:38;3.05;;;2.50;;
77038;SDS011;65970;50.476;4.840;2024-03-17T02:54:38;5.38;;;3.10;;
77038;SDS011;65970;50.476;4.840;2024-03-17T02:59:39;7.90;;;3.40;;
77038;SDS011;65970;50.476;4.840;2024-03-17T03:04:40;4.80;;;2.70;;
77038;SDS011;65970;50.476;4.840;2024-03-17T03:09:40;4.93;;;3.20;;
77038;SDS011;65970;50.476;4.840;2024-03-17T03:14:41;5.00;;;2.80;;
77038;SDS011;65970;50.476;4.840;2024-03-17T03:19:42;3.22;;;2.25;;
77038;SDS011;65970;50.476;4.840;2024-03-17T03:24:42;4.45;;;3.00;;
77038;SDS011;65970;50.476;4.840;2024-03-17T03:29:43;5.00;;;3.03;;
77038;SDS011;65970;50.476;4.840;2024-03-17T03:34:43;5.80;;;2.30;;
77038;SDS011;65970;50.476;4.840;2024-03-17T03:39:44;3.40;;;2.38;;
77038;SDS011;65970;50.476;4.840;2024-03-17T03:44:46;4.55;;;2.88;;
77038;SDS011;65970;50.476;4.840;2024-03-17T03:49:46;4.68;;;3.53;;
77038;SDS011;65970;50.476;4.840;2024-03-17T03:54:47;3.42;;;2.60;;
77038;SDS011;65970;50.476;4.840;2024-03-17T04:04:51;3.78;;;2.58;;
77038;SDS011;65970;50.476;4.840;2024-03-17T04:09:51;7.45;;;3.15;;
77038;SDS011;65970;50.476;4.840;2024-03-17T04:14:52;3.95;;;2.58;;
77038;SDS011;65970;50.476;4.840;2024-03-17T04:19:53;2.35;;;2.15;;
77038;SDS011;65970;50.476;4.840;2024-03-17T04:24:54;3.08;;;2.30;;
77038;SDS011;65970;50.476;4.840;2024-03-17T04:29:56;3.97;;;2.97;;
77038;SDS011;65970;50.476;4.840;2024-03-17T04:34:58;4.00;;;2.40;;
77038;SDS011;65970;50.476;4.840;2024-03-17T04:39:59;3.72;;;2.35;;
77038;SDS011;65970;50.476;4.840;2024-03-17T04:44:59;4.05;;;2.63;;
77038;SDS011;65970;50.476;4.840;2024-03-17T04:50:00;3.50;;;2.92;;
77038;SDS011;65970;50.476;4.840;2024-03-17T04:55:01;4.28;;;2.92;;
77038;SDS011;65970;50.476;4.840;2024-03-17T05:00:02;5.07;;;2.72;;
77038;SDS011;65970;50.476;4.840;2024-03-17T05:05:03;3.42;;;2.72;;
77038;SDS011;65970;50.476;4.840;2024-03-17T05:10:04;4.50;;;2.92;;
77038;SDS011;65970;50.476;4.840;2024-03-17T05:15:05;3.80;;;2.70;;
77038;SDS011;65970;50.476;4.840;2024-03-17T05:20:06;3.38;;;2.58;;
77038;SDS011;65970;50.476;4.840;2024-03-17T05:25:07;3.45;;;3.10;;
77038;SDS011;65970;50.476;4.840;2024-03-17T05:30:08;5.10;;;2.63;;
77038;SDS011;65970;50.476;4.840;2024-03-17T05:35:08;5.00;;;2.63;;
77038;SDS011;65970;50.476;4.840;2024-03-17T05:40:10;4.45;;;2.45;;
77038;SDS011;65970;50.476;4.840;2024-03-17T05:45:11;3.08;;;2.47;;
77038;SDS011;65970;50.476;4.840;2024-03-17T05:50:11;4.55;;;2.53;;
77038;SDS011;65970;50.476;4.840;2024-03-17T05:55:12;2.63;;;2.17;;
77038;SDS011;65970;50.476;4.840;2024-03-17T06:00:12;5.60;;;2.70;;
77038;SDS011;65970;50.476;4.840;2024-03-17T06:05:13;3.50;;;2.47;;
77038;SDS011;65970;50.476;4.840;2024-03-17T06:10:14;4.32;;;2.42;;
77038;SDS011;65970;50.476;4.840;2024-03-17T06:15:15;3.53;;;1.90;;
77038;SDS011;65970;50.476;4.840;2024-03-17T06:20:15;3.58;;;2.08;;
77038;SDS011;65970;50.476;4.840;2024-03-17T06:25:16;3.40;;;2.42;;
77038;SDS011;65970;50.476;4.840;2024-03-17T06:30:16;3.05;;;2.72;;
77038;SDS011;65970;50.476;4.840;2024-03-17T06:35:17;5.00;;;3.25;;
77038;SDS011;65970;50.476;4.840;2024-03-17T06:40:18;2.55;;;2.17;;
77038;SDS011;65970;50.476;4.840;2024-03-17T06:45:19;4.05;;;2.28;;
77038;SDS011;65970;50.476;4.840;2024-03-17T06:50:19;2.65;;;1.90;;
77038;SDS011;65970;50.476;4.840;2024-03-17T06:55:20;5.28;;;2.85;;
77038;SDS011;65970;50.476;4.840;2024-03-17T07:00:20;4.40;;;2.28;;
77038;SDS011;65970;50.476;4.840;2024-03-17T07:05:21;5.28;;;2.15;;
77038;SDS011;65970;50.476;4.840;2024-03-17T07:10:22;4.72;;;2.53;;
77038;SDS011;65970;50.476;4.840;2024-03-17T07:15:22;5.93;;;2.85;;
77038;SDS011;65970;50.476;4.840;2024-03-17T07:20:23;5.90;;;2.40;;
77038;SDS011;65970;50.476;4.840;2024-03-17T07:25:23;4.65;;;2.80;;
77038;SDS011;65970;50.476;4.840;2024-03-17T07:30:24;2.70;;;1.92;;
77038;SDS011;65970;50.476;4.840;2024-03-17T07:35:24;5.07;;;2.20;;
77038;SDS011;65970;50.476;4.840;2024-03-17T07:40:25;2.97;;;2.33;;
77038;SDS011;65970;50.476;4.840;2024-03-17T07:45:25;4.35;;;2.45;;
77038;SDS011;65970;50.476;4.840;2024-03-17T07:50:26;3.60;;;2.05;;
77038;SDS011;65970;50.476;4.840;2024-03-17T07:55:26;3.83;;;1.88;;
77038;SDS011;65970;50.476;4.840;2024-03-17T08:00:27;3.83;;;1.73;;
77038;SDS011;65970;50.476;4.840;2024-03-17T08:05:27;3.05;;;1.88;;
77038;SDS011;65970;50.476;4.840;2024-03-17T08:10:28;2.67;;;1.70;;
77038;SDS011;65970;50.476;4.840;2024-03-17T08:15:29;2.58;;;1.65;;
77038;SDS011;65970;50.476;4.840;2024-03-17T08:20:29;2.28;;;1.63;;
77038;SDS011;65970;50.476;4.840;2024-03-17T08:25:30;1.58;;;1.48;;
77038;SDS011;65970;50.476;4.840;2024-03-17T08:30:30;1.63;;;1.45;;
77038;SDS011;65970;50.476;4.840;2024-03-17T08:35:31;1.98;;;1.83;;
77038;SDS011;65970;50.476;4.840;2024-03-17T08:40:31;5.65;;;1.20;;
77038;SDS011;65970;50.476;4.840;2024-03-17T08:45:32;2.60;;;1.30;;
77038;SDS011;65970;50.476;4.840;2024-03-17T08:50:33;2.45;;;1.50;;
77038;SDS011;65970;50.476;4.840;2024-03-17T08:55:33;2.60;;;1.20;;
77038;SDS011;65970;50.476;4.840;2024-03-17T09:00:34;1.25;;;0.85;;
77038;SDS011;65970;50.476;4.840;2024-03-17T09:05:34;2.17;;;1.30;;
77038;SDS011;65970;50.476;4.840;2024-03-17T09:10:39;3.75;;;1.08;;
77038;SDS011;65970;50.476;4.840;2024-03-17T09:15:40;2.38;;;1.33;;
77038;SDS011;65970;50.476;4.840;2024-03-17T09:20:41;1.60;;;1.20;;
77038;SDS011;65970;50.476;4.840;2024-03-17T09:25:41;1.85;;;1.17;;
77038;SDS011;65970;50.476;4.840;2024-03-17T09:30:46;1.27;;;1.05;;
77038;SDS011;65970;50.476;4.840;2024-03-17T09:35:54;2.30;;;1.00;;
77038;SDS011;65970;50.476;4.840;2024-03-17T09:40:59;0.90;;;0.70;;
77038;SDS011;65970;50.476;4.840;2024-03-17T09:46:03;2.90;;;0.95;;
77038;SDS011;65970;50.476;4.840;2024-03-17T09:51:04;2.08;;;0.98;;
77038;SDS011;65970;50.476;4.840;2024-03-17T09:56:11;1.55;;;0.95;;
77038;SDS011;65970;50.476;4.840;2024-03-17T10:01:13;2.10;;;1.20;;
77038;SDS011;65970;50.476;4.840;2024-03-17T10:06:15;2.17;;;1.17;;
77038;SDS011;65970;50.476;4.840;2024-03-17T10:11:17;1.00;;;0.80;;
77038;SDS011;65970;50.476;4.840;2024-03-17T10:16:22;2.22;;;1.10;;
77038;SDS011;65970;50.476;4.840;2024-03-17T10:21:25;0.90;;;0.90;;
77038;SDS011;65970;50.476;4.840;2024-03-17T10:26:26;5.28;;;0.90;;
77038;SDS011;65970;50.476;4.840;2024-03-17T10:31:27;1.23;;;1.02;;
77038;SDS011;65970;50.476;4.840;2024-03-17T10:36:28;4.22;;;1.10;;
77038;SDS011;65970;50.476;4.840;2024-03-17T10:41:29;1.58;;;0.90;;
77038;SDS011;65970;50.476;4.840;2024-03-17T10:46:30;0.70;;;0.70;;
77038;SDS011;65970;50.476;4.840;2024-03-17T10:51:31;1.98;;;1.02;;
77038;SDS011;65970;50.476;4.840;2024-03-17T10:56:32;0.85;;;0.68;;
77038;SDS011;65970;50.476;4.840;2024-03-17T11:01:33;1.05;;;0.52;;
77038;SDS011;65970;50.476;4.840;2024-03-17T11:06:33;1.35;;;0.63;;
77038;SDS011;65970;50.476;4.840;2024-03-17T11:11:35;1.33;;;0.90;;
77038;SDS011;65970;50.476;4.840;2024-03-17T11:16:36;1.48;;;1.20;;
77038;SDS011;65970;50.476;4.840;2024-03-17T11:21:37;1.75;;;0.57;;
77038;SDS011;65970;50.476;4.840;2024-03-17T11:26:37;1.33;;;0.75;;
77038;SDS011;65970;50.476;4.840;2024-03-17T11:31:42;1.30;;;0.80;;
77038;SDS011;65970;50.476;4.840;2024-03-17T11:36:44;2.13;;;1.45;;
77038;SDS011;65970;50.476;4.840;2024-03-17T11:41:45;2.25;;;0.82;;
77038;SDS011;65970;50.476;4.840;2024-03-17T11:46:50;1.48;;;0.68;;
77038;SDS011;65970;50.476;4.840;2024-03-17T11:51:52;0.63;;;0.60;;
77038;SDS011;65970;50.476;4.840;2024-03-17T11:56:56;0.70;;;0.60;;
77038;SDS011;65970;50.476;4.840;2024-03-17T12:02:25;0.68;;;0.50;;
77038;SDS011;65970;50.476;4.840;2024-03-17T12:07:31;0.85;;;0.52;;
77038;SDS011;65970;50.476;4.840;2024-03-17T12:12:31;0.77;;;0.50;;
77038;SDS011;65970;50.476;4.840;2024-03-17T12:17:32;1.35;;;0.50;;
77038;SDS011;65970;50.476;4.840;2024-03-17T12:22:32;1.73;;;1.08;;
77038;SDS011;65970;50.476;4.840;2024-03-17T12:27:33;1.92;;;0.73;;
77038;SDS011;65970;50.476;4.840;2024-03-17T12:32:34;0.45;;;0.40;;
77038;SDS011;65970;50.476;4.840;2024-03-17T12:37:35;2.28;;;0.50;;
77038;SDS011;65970;50.476;4.840;2024-03-17T12:42:36;1.50;;;0.77;;
77038;SDS011;65970;50.476;4.840;2024-03-17T12:47:36;1.75;;;0.68;;
77038;SDS011;65970;50.476;4.840;2024-03-17T12:52:37;1.27;;;0.90;;
77038;SDS011;65970;50.476;4.840;2024-03-17T12:57:38;0.90;;;0.50;;
77038;SDS011;65970;50.476;4.840;2024-03-17T13:02:42;0.40;;;0.40;;
77038;SDS011;65970;50.476;4.840;2024-03-17T13:07:43;1.38;;;0.60;;
77038;SDS011;65970;50.476;4.840;2024-03-17T13:12:45;1.75;;;0.63;;
77038;SDS011;65970;50.476;4.840;2024-03-17T13:17:46;0.65;;;0.50;;
77038;SDS011;65970;50.476;4.840;2024-03-17T13:22:46;0.88;;;0.40;;
77038;SDS011;65970;50.476;4.840;2024-03-17T13:27:47;1.02;;;0.40;;
77038;SDS011;65970;50.476;4.840;2024-03-17T13:32:52;1.08;;;0.47;;
77038;SDS011;65970;50.476;4.840;2024-03-17T13:37:53;0.45;;;0.45;;
77038;SDS011;65970;50.476;4.840;2024-03-17T13:42:54;1.00;;;0.50;;
77038;SDS011;65970;50.476;4.840;2024-03-17T13:47:56;0.77;;;0.50;;
77038;SDS011;65970;50.476;4.840;2024-03-17T13:52:57;0.40;;;0.40;;
77038;SDS011;65970;50.476;4.840;2024-03-17T13:57:58;1.35;;;0.70;;
77038;SDS011;65970;50.476;4.840;2024-03-17T14:02:58;0.40;;;0.40;;
77038;SDS011;65970;50.476;4.840;2024-03-17T14:07:59;0.60;;;0.50;;
77038;SDS011;65970;50.476;4.840;2024-03-17T14:13:00;0.40;;;0.40;;
77038;SDS011;65970;50.476;4.840;2024-03-17T14:18:00;0.45;;;0.30;;
77038;SDS011;65970;50.476;4.840;2024-03-17T14:23:01;1.75;;;0.30;;
77038;SDS011;65970;50.476;4.840;2024-03-17T14:28:01;1.05;;;0.50;;
77038;SDS011;65970;50.476;4.840;2024-03-17T14:33:02;1.42;;;0.43;;
77038;SDS011;65970;50.476;4.840;2024-03-17T14:38:03;0.93;;;0.47;;
77038;SDS011;65970;50.476;4.840;2024-03-17T14:43:03;2.25;;;0.50;;
77038;SDS011;65970;50.476;4.840;2024-03-17T14:48:04;1.90;;;0.50;;
77038;SDS011;65970;50.476;4.840;2024-03-17T14:53:05;0.70;;;0.55;;
77038;SDS011;65970;50.476;4.840;2024-03-17T14:58:05;0.95;;;0.57;;
77038;SDS011;65970;50.476;4.840;2024-03-17T15:03:06;0.95;;;0.60;;
77038;SDS011;65970;50.476;4.840;2024-03-17T15:08:07;1.30;;;0.88;;
77038;SDS011;65970;50.476;4.840;2024-03-17T15:13:07;1.80;;;0.75;;
77038;SDS011;65970;50.476;4.840;2024-03-17T15:18:08;1.77;;;0.85;;
77038;SDS011;65970;50.476;4.840;2024-03-17T15:23:08;1.80;;;0.80;;
77038;SDS011;65970;50.476;4.840;2024-03-17T15:28:09;0.80;;;0.45;;
77038;SDS011;65970;50.476;4.840;2024-03-17T15:33:09;2.28;;;0.70;;
77038;SDS011;65970;50.476;4.840;2024-03-17T15:38:10;2.38;;;0.80;;
77038;SDS011;65970;50.476;4.840;2024-03-17T15:43:10;4.15;;;1.13;;
77038;SDS011;65970;50.476;4.840;2024-03-17T15:48:11;0.80;;;0.80;;
77038;SDS011;65970;50.476;4.840;2024-03-17T15:53:11;1.13;;;0.60;;
77038;SDS011;65970;50.476;4.840;2024-03-17T15:58:12;0.60;;;0.60;;
77038;SDS011;65970;50.476;4.840;2024-03-17T16:03:13;0.77;;;0.57;;
77038;SDS011;65970;50.476;4.840;2024-03-17T16:08:17;0.90;;;0.70;;
77038;SDS011;65970;50.476;4.840;2024-03-17T16:13:19;1.88;;;1.00;;
77038;SDS011;65970;50.476;4.840;2024-03-17T16:18:22;3.53;;;0.80;;
77038;SDS011;65970;50.476;4.840;2024-03-17T16:23:22;1.20;;;0.82;;
77038;SDS011;65970;50.476;4.840;2024-03-17T16:28:24;2.92;;;1.02;;
77038;SDS011;65970;50.476;4.840;2024-03-17T16:33:25;1.48;;;1.00;;
77038;SDS011;65970;50.476;4.840;2024-03-17T16:38:25;0.70;;;0.65;;
77038;SDS011;65970;50.476;4.840;2024-03-17T16:48:45;2.72;;;1.15;;
77038;SDS011;65970;50.476;4.840;2024-03-17T16:53:47;3.03;;;0.73;;
77038;SDS011;65970;50.476;4.840;2024-03-17T16:58:48;0.70;;;0.55;;
77038;SDS011;65970;50.476;4.840;2024-03-17T17:03:48;2.03;;;0.77;;
77038;SDS011;65970;50.476;4.840;2024-03-17T17:08:49;0.68;;;0.55;;
77038;SDS011;65970;50.476;4.840;2024-03-17T17:13:50;1.08;;;0.70;;
77038;SDS011;65970;50.476;4.840;2024-03-17T17:19:00;1.95;;;0.73;;
77038;SDS011;65970;50.476;4.840;2024-03-17T17:24:03;1.52;;;0.73;;
77038;SDS011;65970;50.476;4.840;2024-03-17T17:29:03;3.08;;;0.75;;
77038;SDS011;65970;50.476;4.840;2024-03-17T17:34:04;2.17;;;0.82;;
77038;SDS011;65970;50.476;4.840;2024-03-17T17:39:04;0.95;;;0.70;;
77038;SDS011;65970;50.476;4.840;2024-03-17T17:44:05;1.10;;;0.70;;
77038;SDS011;65970;50.476;4.840;2024-03-17T17:49:06;2.55;;;1.00;;
77038;SDS011;65970;50.476;4.840;2024-03-17T17:54:06;1.33;;;0.60;;
77038;SDS011;65970;50.476;4.840;2024-03-17T17:59:07;1.58;;;1.00;;
77038;SDS011;65970;50.476;4.840;2024-03-17T18:04:07;3.65;;;1.00;;
77038;SDS011;65970;50.476;4.840;2024-03-17T18:09:08;2.38;;;0.80;;
77038;SDS011;65970;50.476;4.840;2024-03-17T18:14:09;0.60;;;0.60;;
77038;SDS011;65970;50.476;4.840;2024-03-17T18:19:09;0.77;;;0.60;;
77038;SDS011;65970;50.476;4.840;2024-03-17T18:24:10;0.60;;;0.52;;
77038;SDS011;65970;50.476;4.840;2024-03-17T18:29:10;1.77;;;0.98;;
77038;SDS011;65970;50.476;4.840;2024-03-17T18:34:11;2.90;;;1.15;;
77038;SDS011;65970;50.476;4.840;2024-03-17T18:39:11;2.53;;;1.17;;
77038;SDS011;65970;50.476;4.840;2024-03-17T18:44:12;1.08;;;0.90;;
77038;SDS011;65970;50.476;4.840;2024-03-17T18:49:12;1.75;;;0.80;;
77038;SDS011;65970;50.476;4.840;2024-03-17T18:54:13;1.52;;;0.90;;
77038;SDS011;65970;50.476;4.840;2024-03-17T18:59:14;0.82;;;0.57;;
77038;SDS011;65970;50.476;4.840;2024-03-17T19:04:14;3.42;;;0.80;;
77038;SDS011;65970;50.476;4.840;2024-03-17T19:09:15;1.73;;;1.17;;
77038;SDS011;65970;50.476;4.840;2024-03-17T19:14:15;1.38;;;1.15;;
77038;SDS011;65970;50.476;4.840;2024-03-17T19:19:16;0.88;;;0.75;;
77038;SDS011;65970;50.476;4.840;2024-03-17T19:24:16;2.60;;;0.88;;
77038;SDS011;65970;50.476;4.840;2024-03-17T19:29:17;0.82;;;0.77;;
77038;SDS011;65970;50.476;4.840;2024-03-17T19:34:18;0.95;;;0.60;;
77038;SDS011;65970;50.476;4.840;2024-03-17T19:39:18;1.05;;;0.98;;
77038;SDS011;65970;50.476;4.840;2024-03-17T19:44:19;0.55;;;0.52;;
77038;SDS011;65970;50.476;4.840;2024-03-17T19:49:19;1.65;;;0.63;;
77038;SDS011;65970;50.476;4.840;2024-03-17T19:54:20;0.55;;;0.40;;
77038;SDS011;65970;50.476;4.840;2024-03-17T19:59:21;1.95;;;0.45;;
77038;SDS011;65970;50.476;4.840;2024-03-17T20:04:21;0.77;;;0.50;;
77038;SDS011;65970;50.476;4.840;2024-03-17T20:09:22;0.30;;;0.30;;
77038;SDS011;65970;50.476;4.840;2024-03-17T20:14:22;0.22;;;0.22;;
77038;SDS011;65970;50.476;4.840;2024-03-17T20:19:23;0.85;;;0.45;;
77038;SDS011;65970;50.476;4.840;2024-03-17T20:24:23;0.40;;;0.22;;
77038;SDS011;65970;50.476;4.840;2024-03-17T20:29:24;0.40;;;0.40;;
77038;SDS011;65970;50.476;4.840;2024-03-17T20:34:24;0.30;;;0.30;;
77038;SDS011;65970;50.476;4.840;2024-03-17T20:39:25;0.82;;;0.40;;
77038;SDS011;65970;50.476;4.840;2024-03-17T20:44:25;0.22;;;0.17;;
77038;SDS011;65970;50.476;4.840;2024-03-17T20:49:26;1.13;;;0.30;;
77038;SDS011;65970;50.476;4.840;2024-03-17T20:54:26;0.47;;;0.20;;
77038;SDS011;65970;50.476;4.840;2024-03-17T20:59:27;0.15;;;0.15;;
77038;SDS011;65970;50.476;4.840;2024-03-17T21:04:28;1.20;;;0.30;;
77038;SDS011;65970;50.476;4.840;2024-03-17T21:09:28;0.65;;;0.30;;
77038;SDS011;65970;50.476;4.840;2024-03-17T21:14:29;0.35;;;0.35;;
77038;SDS011;65970;50.476;4.840;2024-03-17T21:19:30;0.50;;;0.20;;
77038;SDS011;65970;50.476;4.840;2024-03-17T21:24:32;0.32;;;0.30;;
77038;SDS011;65970;50.476;4.840;2024-03-17T21:29:32;0.40;;;0.30;;
77038;SDS011;65970;50.476;4.840;2024-03-17T21:34:33;1.15;;;0.10;;
77038;SDS011;65970;50.476;4.840;2024-03-17T21:39:33;0.40;;;0.20;;
77038;SDS011;65970;50.476;4.840;2024-03-17T21:44:34;0.20;;;0.20;;
77038;SDS011;65970;50.476;4.840;2024-03-17T21:49:35;2.08;;;0.50;;
77038;SDS011;65970;50.476;4.840;2024-03-17T21:54:36;0.40;;;0.40;;
77038;SDS011;65970;50.476;4.840;2024-03-17T21:59:36;0.30;;;0.30;;
77038;SDS011;65970;50.476;4.840;2024-03-17T22:04:37;0.20;;;0.20;;
77038;SDS011;65970;50.476;4.840;2024-03-17T22:09:37;0.30;;;0.30;;
77038;SDS011;65970;50.476;4.840;2024-03-17T22:14:38;0.30;;;0.30;;
77038;SDS011;65970;50.476;4.840;2024-03-17T22:19:38;0.30;;;0.28;;
77038;SDS011;65970;50.476;4.840;2024-03-17T22:24:39;1.10;;;0.20;;
77038;SDS011;65970;50.476;4.840;2024-03-17T22:29:39;0.88;;;0.40;;
77038;SDS011;65970;50.476;4.840;2024-03-17T22:34:40;0.65;;;0.45;;
77038;SDS011;65970;50.476;4.840;2024-03-17T22:39:41;1.10;;;0.40;;
77038;SDS011;65970;50.476;4.840;2024-03-17T22:44:41;0.40;;;0.40;;
77038;SDS011;65970;50.476;4.840;2024-03-17T22:49:42;0.32;;;0.30;;
77038;SDS011;65970;50.476;4.840;2024-03-17T22:54:42;0.28;;;0.28;;
77038;SDS011;65970;50.476;4.840;2024-03-17T22:59:43;0.52;;;0.38;;
77038;SDS011;65970;50.476;4.840;2024-03-17T23:04:44;0.88;;;0.65;;
77038;SDS011;65970;50.476;4.840;2024-03-17T23:09:45;0.63;;;0.28;;
77038;SDS011;65970;50.476;4.840;2024-03-17T23:14:45;0.40;;;0.40;;
77038;SDS011;65970;50.476;4.840;2024-03-17T23:19:46;0.82;;;0.40;;
77038;SDS011;65970;50.476;4.840;2024-03-17T23:24:46;0.63;;;0.40;;
77038;SDS011;65970;50.476;4.840;2024-03-17T23:29:47;0.40;;;0.40;;
77038;SDS011;65970;50.476;4.840;2024-03-17T23:34:48;1.92;;;0.38;;
77038;SDS011;65970;50.476;4.840;2024-03-17T23:39:48;1.17;;;0.32;;
77038;SDS011;65970;50.476;4.840;2024-03-17T23:44:49;1.45;;;0.50;;
77038;SDS011;65970;50.476;4.840;2024-03-17T23:49:49;0.47;;;0.38;;
77038;SDS011;65970;50.476;4.840;2024-03-17T23:54:50;0.70;;;0.50;;
77038;SDS011;65970;50.476;4.840;2024-03-17T23:59:50;0.45;;;0.45;;
